NCAR-RAP Real-Time Weather Data

Output produced by METARs form (06 May 2021  16:56 UTC)
found at http://weather.rap.ucar.edu/surface/
 
KDLN 061553Z AUTO 21003KT 10SM CLR 09/M04 A3020 RMK AO2 SLP209 T00941039
KDLN 061453Z AUTO 18003KT 10SM CLR 07/M04 A3022 RMK AO2 SLP216 T00671044 50001
KDLN 061353Z AUTO 21006KT 10SM CLR 05/M04 A3022 RMK AO2 SLP211 T00501044
KDLN 061253Z AUTO 19007KT 10SM CLR 02/M05 A3022 RMK AO2 SLP212 T00221050
KDLN 061153Z AUTO 20007KT 10SM CLR 02/M04 A3022 RMK AO2 SLP213 T00171044 10061 20000 56005
KDLN 061053Z AUTO 17005KT 10SM CLR 02/M05 A3022 RMK AO2 SLP213 T00171050
KDLN 060953Z AUTO 14005KT 10SM CLR 01/M05 A3023 RMK AO2 SLP220 T00111050
KDLN 060853Z AUTO 00000KT 10SM CLR 03/M05 A3023 RMK AO2 SLP221 T00331050 50004
KDLN 060753Z AUTO 07005KT 10SM CLR 04/M05 A3024 RMK AO2 SLP221 T00441050
KDLN 060653Z AUTO 06007KT 10SM CLR 06/M04 A3023 RMK AO2 SLP218 T00561044 401831006
KDLN 060553Z AUTO 06006KT 10SM CLR 07/M08 A3022 RMK AO2 SLP216 T00671078 10178 20067 51016
KDLN 060453Z AUTO 02003KT 10SM CLR 08/M07 A3021 RMK AO2 SLP214 T00831067
KDLN 060353Z AUTO 12009KT 10SM CLR 08/M08 A3019 RMK AO2 SLP209 T00831078